createdAt,value
2023-02-22T00:00:43.007Z,82.45
2023-02-22T00:03:32.439Z,83.85
2023-02-22T00:06:04.191Z,83.17
2023-02-22T00:08:36.455Z,83.66
2023-02-22T00:11:08.411Z,84.16
2023-02-22T00:13:35.740Z,83.04
2023-02-22T00:16:02.904Z,83.25
2023-02-22T00:18:29.997Z,84.14
2023-02-22T00:21:00.035Z,87.63
2023-02-22T00:23:29.669Z,86.48
2023-02-22T00:25:58.226Z,86.67
2023-02-22T00:28:25.483Z,85.83
2023-02-22T00:30:54.704Z,84.99
2023-02-22T00:33:21.408Z,84.53
2023-02-22T00:35:48.091Z,84.79
2023-02-22T00:38:18.476Z,84.53
2023-02-22T00:40:45.560Z,84.21
2023-02-22T00:43:12.488Z,84.25
2023-02-22T00:45:39.179Z,83.72
2023-02-22T00:48:07.109Z,83.52
2023-02-22T00:50:33.916Z,83.27
2023-02-22T00:53:03.768Z,83.18
2023-02-22T00:55:33.144Z,83.14
2023-02-22T00:58:02.175Z,82.97
2023-02-22T01:00:31.570Z,82.65
2023-02-22T01:03:00.404Z,82.34
2023-02-22T01:05:29.825Z,82.23
2023-02-22T01:07:58.248Z,82.71
2023-02-22T01:10:27.290Z,82.07
2023-02-22T01:12:55.023Z,81.97
2023-02-22T01:15:24.085Z,81.61
2023-02-22T01:17:53.702Z,81.08
2023-02-22T01:20:22.823Z,81.20
2023-02-22T01:22:51.592Z,80.95
2023-02-22T01:25:21.080Z,81.00
2023-02-22T01:27:50.251Z,80.90
2023-02-22T01:30:21.393Z,80.64
2023-02-22T01:32:48.114Z,80.53
2023-02-22T01:35:18.652Z,80.57
2023-02-22T01:37:45.683Z,80.44
2023-02-22T01:40:23.456Z,80.56
2023-02-22T01:42:55.360Z,80.15
2023-02-22T01:45:31.013Z,80.21
2023-02-22T01:48:04.358Z,80.04
2023-02-22T01:50:34.812Z,79.86
2023-02-22T01:53:03.304Z,79.92
2023-02-22T01:55:31.995Z,79.49
2023-02-22T01:57:58.656Z,79.69
2023-02-22T02:00:27.645Z,79.95
2023-02-22T02:03:06.503Z,80.25
2023-02-22T02:05:36.742Z,79.97
2023-02-22T02:08:14.917Z,80.26
2023-02-22T02:10:42.805Z,80.00
2023-02-22T02:13:10.179Z,80.28
2023-02-22T02:15:37.219Z,80.02
2023-02-22T02:18:07.341Z,80.59
2023-02-22T02:20:49.257Z,80.73
2023-02-22T02:23:36.752Z,81.03
2023-02-22T02:26:09.361Z,81.68
2023-02-22T02:29:01.958Z,81.81
2023-02-22T02:31:46.948Z,81.77
2023-02-22T02:34:20.381Z,82.04
2023-02-22T02:37:15.013Z,82.40
2023-02-22T02:39:53.141Z,82.24
2023-02-22T02:42:25.196Z,82.11
2023-02-22T02:45:08.729Z,82.42
2023-02-22T02:47:40.709Z,82.05
2023-02-22T02:50:18.311Z,81.68
2023-02-22T02:52:46.544Z,81.60
2023-02-22T02:55:14.409Z,81.26
2023-02-22T02:57:40.997Z,81.17
2023-02-22T03:00:24.212Z,80.98
2023-02-22T03:03:18.665Z,80.52
2023-02-22T03:05:52.594Z,80.79
2023-02-22T03:08:24.570Z,80.60
2023-02-22T03:11:15.292Z,80.79
2023-02-22T03:14:11.302Z,80.72
2023-02-22T03:16:59.228Z,80.90
2023-02-22T03:19:45.896Z,80.71
2023-02-22T03:22:26.175Z,80.22
2023-02-22T03:24:59.057Z,80.65
2023-02-22T03:27:37.161Z,80.59
2023-02-22T03:30:20.164Z,80.70
2023-02-22T03:32:52.820Z,80.76
2023-02-22T03:35:24.071Z,81.09
2023-02-22T03:37:56.751Z,81.07
2023-02-22T03:40:29.078Z,81.52
2023-02-22T03:43:02.187Z,81.44
2023-02-22T03:45:32.488Z,81.21
2023-02-22T03:48:14.543Z,81.50
2023-02-22T03:50:41.399Z,81.27
2023-02-22T03:53:09.619Z,81.09
2023-02-22T03:55:36.198Z,81.15
2023-02-22T03:58:09.423Z,80.69
2023-02-22T04:00:36.137Z,80.74
2023-02-22T04:03:03.289Z,80.59
2023-02-22T04:05:30.148Z,80.74
2023-02-22T04:07:57.536Z,80.73
2023-02-22T04:10:24.934Z,81.25
2023-02-22T04:12:51.521Z,81.70
2023-02-22T04:15:21.663Z,81.82
2023-02-22T04:17:48.345Z,81.79
2023-02-22T04:20:19.947Z,81.92
2023-02-22T04:22:47.446Z,82.43
2023-02-22T04:25:14.540Z,82.90
2023-02-22T04:27:41.517Z,83.35
2023-02-22T04:30:08.947Z,83.11
2023-02-22T04:32:35.536Z,83.32
2023-02-22T04:35:02.602Z,83.35
2023-02-22T04:37:29.185Z,83.28
2023-02-22T04:39:55.757Z,83.23
2023-02-22T04:42:23.641Z,83.23
2023-02-22T04:44:50.171Z,83.39
2023-02-22T04:47:16.720Z,83.62
2023-02-22T04:49:44.074Z,84.44
2023-02-22T04:52:10.656Z,84.12
2023-02-22T04:54:37.548Z,83.98
2023-02-22T04:57:04.198Z,84.11
2023-02-22T04:59:30.788Z,83.79
2023-02-22T05:01:58.095Z,84.03
2023-02-22T05:04:24.678Z,83.77
2023-02-22T05:06:52.744Z,83.41
2023-02-22T05:09:21.236Z,83.27
2023-02-22T05:11:48.065Z,82.89
2023-02-22T05:14:14.665Z,82.88
2023-02-22T05:16:41.422Z,82.68
2023-02-22T05:19:08.470Z,82.68
2023-02-22T05:21:35.040Z,82.40
2023-02-22T05:24:01.705Z,81.73
2023-02-22T05:26:28.270Z,81.38
2023-02-22T05:28:54.849Z,81.10
2023-02-22T05:31:21.510Z,81.47
2023-02-22T05:33:48.495Z,81.37
2023-02-22T05:36:16.782Z,80.82
2023-02-22T05:38:44.817Z,81.01
2023-02-22T05:41:12.434Z,80.45
2023-02-22T05:43:40.323Z,80.35
2023-02-22T05:46:07.539Z,80.38
2023-02-22T05:48:34.528Z,80.51
2023-02-22T05:51:01.171Z,80.09
2023-02-22T05:53:27.968Z,79.70
2023-02-22T05:55:54.614Z,79.12
2023-02-22T05:58:22.037Z,79.21
2023-02-22T06:00:48.754Z,79.23
2023-02-22T06:03:15.733Z,79.57
2023-02-22T06:05:42.577Z,79.76
2023-02-22T06:08:09.292Z,80.13
2023-02-22T06:10:36.113Z,80.46
2023-02-22T06:13:03.438Z,80.90
2023-02-22T06:15:30.461Z,81.17
2023-02-22T06:17:58.806Z,81.36
2023-02-22T06:20:27.361Z,81.45
2023-02-22T06:22:56.424Z,81.68
2023-02-22T06:25:25.698Z,81.82
2023-02-22T06:27:52.338Z,82.28
2023-02-22T06:30:21.754Z,82.62
2023-02-22T06:32:48.374Z,83.10
2023-02-22T06:35:15.963Z,82.77
2023-02-22T06:37:42.613Z,82.89
2023-02-22T06:40:11.246Z,82.23
2023-02-22T06:42:39.233Z,82.47
2023-02-22T06:45:06.201Z,82.22
2023-02-22T06:47:32.778Z,82.22
2023-02-22T06:50:00.977Z,81.50
2023-02-22T06:52:27.727Z,81.10
2023-02-22T06:54:54.312Z,80.59
2023-02-22T06:57:20.934Z,80.35
2023-02-22T06:59:47.516Z,78.86
2023-02-22T07:02:14.599Z,78.15
2023-02-22T07:04:43.420Z,77.74
2023-02-22T07:07:10.758Z,78.07
2023-02-22T07:09:37.473Z,76.08
2023-02-22T07:12:04.308Z,73.66
2023-02-22T07:14:30.846Z,73.09
2023-02-22T07:16:57.429Z,72.13
2023-02-22T07:19:24.851Z,71.30
2023-02-22T07:21:57.000Z,70.86
2023-02-22T07:24:23.565Z,71.53
2023-02-22T07:26:50.127Z,71.98
2023-02-22T07:29:16.719Z,71.06
2023-02-22T07:31:43.303Z,71.46
2023-02-22T07:34:09.855Z,71.61
2023-02-22T07:36:36.429Z,71.21
2023-02-22T07:39:03.020Z,70.29
2023-02-22T07:41:29.649Z,69.86
2023-02-22T07:43:56.205Z,70.16
2023-02-22T07:46:22.743Z,70.83
2023-02-22T07:48:49.355Z,70.55
2023-02-22T07:51:17.811Z,70.38
2023-02-22T07:53:44.509Z,70.61
2023-02-22T07:56:11.032Z,70.33
2023-02-22T07:58:37.679Z,69.95
2023-02-22T08:01:04.828Z,69.42
2023-02-22T08:03:38.066Z,69.61
2023-02-22T08:06:07.109Z,69.90
2023-02-22T08:08:34.532Z,69.78
2023-02-22T08:11:01.354Z,69.22
2023-02-22T08:13:28.228Z,69.28
2023-02-22T08:15:54.950Z,67.66
2023-02-22T08:18:22.790Z,67.77
2023-02-22T08:20:51.956Z,67.86
2023-02-22T08:23:20.337Z,66.56
2023-02-22T08:25:47.004Z,67.18
2023-02-22T08:28:16.051Z,66.41
2023-02-22T08:30:46.307Z,66.19
2023-02-22T08:33:16.790Z,66.86
2023-02-22T08:35:43.557Z,65.94
2023-02-22T08:38:17.870Z,65.85
2023-02-22T08:40:44.778Z,67.14
2023-02-22T08:43:13.456Z,67.99
2023-02-22T08:45:40.902Z,67.53
2023-02-22T08:48:07.799Z,67.29
2023-02-22T08:50:35.599Z,66.90
2023-02-22T08:53:04.322Z,64.64
2023-02-22T08:55:33.682Z,61.54
2023-02-22T08:58:02.952Z,62.27
2023-02-22T09:00:33.131Z,61.79
2023-02-22T09:03:01.328Z,59.96
2023-02-22T09:05:29.768Z,58.86
2023-02-22T09:07:57.492Z,57.58
2023-02-22T09:10:27.031Z,55.25
2023-02-22T09:12:57.116Z,53.46
2023-02-22T09:15:27.291Z,54.12
2023-02-22T09:17:54.448Z,54.10
2023-02-22T09:20:22.740Z,54.58
2023-02-22T09:22:50.044Z,55.47
2023-02-22T09:25:18.148Z,56.08
2023-02-22T09:27:48.019Z,56.32
2023-02-22T09:30:25.586Z,57.20
2023-02-22T09:32:58.057Z,56.46
2023-02-22T09:35:27.262Z,55.67
2023-02-22T09:37:59.214Z,55.07
2023-02-22T09:40:30.187Z,55.56
2023-02-22T09:43:05.166Z,56.05
2023-02-22T09:45:45.136Z,57.24
2023-02-22T09:48:21.701Z,57.89
2023-02-22T09:50:51.349Z,57.92
2023-02-22T09:53:36.180Z,59.40
2023-02-22T09:56:11.108Z,59.53
2023-02-22T09:58:45.882Z,59.07
2023-02-22T10:01:43.464Z,58.66
2023-02-22T10:04:20.028Z,58.54
2023-02-22T10:07:11.597Z,58.53
2023-02-22T10:09:44.596Z,58.29
2023-02-22T10:12:14.029Z,58.18
2023-02-22T10:14:51.768Z,58.41
2023-02-22T10:17:39.429Z,55.93
2023-02-22T10:20:28.828Z,54.04
2023-02-22T10:23:22.977Z,54.46
2023-02-22T10:25:57.428Z,55.32
2023-02-22T10:28:27.767Z,56.96
2023-02-22T10:31:02.629Z,57.32
2023-02-22T10:33:46.307Z,56.91
2023-02-22T10:36:20.082Z,56.27
2023-02-22T10:38:58.102Z,56.61
2023-02-22T10:41:34.291Z,56.21
2023-02-22T10:44:03.056Z,55.75
2023-02-22T10:46:31.968Z,56.89
2023-02-22T10:49:04.798Z,56.60
2023-02-22T10:51:32.869Z,57.20
2023-02-22T10:54:08.823Z,56.89
2023-02-22T10:56:35.582Z,56.77
2023-02-22T10:59:06.064Z,55.72
2023-02-22T11:01:32.663Z,57.29
2023-02-22T11:04:09.716Z,57.68
2023-02-22T11:06:37.475Z,57.87
2023-02-22T11:09:19.248Z,57.36
2023-02-22T11:11:47.824Z,56.80
2023-02-22T11:14:27.445Z,56.97
2023-02-22T11:16:56.968Z,56.58
2023-02-22T11:19:31.954Z,57.13
2023-02-22T11:22:32.864Z,57.72
2023-02-22T11:25:04.292Z,58.56
2023-02-22T11:27:33.840Z,58.23
2023-02-22T11:30:32.043Z,57.51
2023-02-22T11:33:16.920Z,57.73
2023-02-22T11:35:53.715Z,56.93
2023-02-22T11:38:24.290Z,56.68
2023-02-22T11:41:14.637Z,55.75
2023-02-22T11:43:46.271Z,56.30
2023-02-22T11:46:21.618Z,56.00
2023-02-22T11:49:10.131Z,56.30
2023-02-22T11:51:59.727Z,56.83
2023-02-22T11:55:09.875Z,56.12
2023-02-22T11:57:51.559Z,54.68
2023-02-22T12:00:39.760Z,53.67
2023-02-22T12:03:18.214Z,53.13
2023-02-22T12:05:59.914Z,53.85
2023-02-22T12:08:29.534Z,53.39
2023-02-22T12:11:10.124Z,53.46
2023-02-22T12:13:45.486Z,54.05
2023-02-22T12:16:25.133Z,54.32
2023-02-22T12:19:16.587Z,53.87
2023-02-22T12:21:46.875Z,53.70
2023-02-22T12:24:23.953Z,53.84
2023-02-22T12:27:12.182Z,54.40
2023-02-22T12:29:48.523Z,55.38
2023-02-22T12:32:24.778Z,55.07
2023-02-22T12:35:25.869Z,55.21
2023-02-22T12:37:56.180Z,55.56
2023-02-22T12:40:58.091Z,56.16
2023-02-22T12:43:34.206Z,56.71
2023-02-22T12:46:10.525Z,57.63
2023-02-22T12:48:54.220Z,57.50
2023-02-22T12:51:43.288Z,57.47
2023-02-22T12:54:26.549Z,57.92
2023-02-22T12:57:00.789Z,57.60
2023-02-22T12:59:39.117Z,57.88
2023-02-22T13:02:23.908Z,58.73
2023-02-22T13:04:50.707Z,58.87
2023-02-22T13:07:23.202Z,59.06
2023-02-22T13:10:19.246Z,59.00
2023-02-22T13:13:03.901Z,58.36
2023-02-22T13:15:52.345Z,58.81
2023-02-22T13:18:50.543Z,59.63
2023-02-22T13:21:55.556Z,59.73
2023-02-22T13:24:39.233Z,59.20
2023-02-22T13:27:17.361Z,58.98
2023-02-22T13:29:52.196Z,59.31
2023-02-22T13:32:45.455Z,59.01
2023-02-22T13:35:24.140Z,59.31
2023-02-22T13:38:13.691Z,59.32
2023-02-22T13:41:34.201Z,60.39
2023-02-22T13:44:14.955Z,60.31
2023-02-22T13:47:07.152Z,60.11
2023-02-22T13:50:15.281Z,60.67
2023-02-22T13:52:43.306Z,61.08
2023-02-22T13:55:20.505Z,60.95
2023-02-22T13:57:51.668Z,60.59
2023-02-22T14:00:24.326Z,60.77
2023-02-22T14:03:10.561Z,61.44
2023-02-22T14:05:43.421Z,61.58
2023-02-22T14:08:19.215Z,62.20
2023-02-22T14:10:52.196Z,62.00
2023-02-22T14:13:22.526Z,62.44
2023-02-22T14:15:59.915Z,62.51
2023-02-22T14:18:30.754Z,62.95
2023-02-22T14:21:20.999Z,63.54
2023-02-22T14:23:56.010Z,63.23
2023-02-22T14:26:37.420Z,63.71
2023-02-22T14:29:09.817Z,63.77
2023-02-22T14:31:45.024Z,62.81
2023-02-22T14:34:15.331Z,62.11
2023-02-22T14:36:47.964Z,62.16
2023-02-22T14:39:29.416Z,62.32
2023-02-22T14:42:02.345Z,62.54
2023-02-22T14:44:39.706Z,62.65
2023-02-22T14:47:14.095Z,62.20
2023-02-22T14:49:49.036Z,61.93
2023-02-22T14:52:24.877Z,61.95
2023-02-22T14:54:59.679Z,60.75
2023-02-22T14:57:48.427Z,59.93
2023-02-22T15:00:30.625Z,59.35
2023-02-22T15:02:59.609Z,59.17
2023-02-22T15:05:30.107Z,59.34
2023-02-22T15:08:02.676Z,59.30
2023-02-22T15:10:42.786Z,59.52
2023-02-22T15:13:15.489Z,59.49
2023-02-22T15:15:54.686Z,58.90
2023-02-22T15:18:27.262Z,59.03
2023-02-22T15:20:58.500Z,59.28
2023-02-22T15:23:30.388Z,58.74
2023-02-22T15:25:58.056Z,58.70
2023-02-22T15:28:28.967Z,57.57
2023-02-22T15:31:25.153Z,57.16
2023-02-22T15:33:53.574Z,57.29
2023-02-22T15:36:25.435Z,57.18
2023-02-22T15:38:55.823Z,57.34
2023-02-22T15:41:32.455Z,57.59
2023-02-22T15:44:14.104Z,56.98
2023-02-22T15:46:49.336Z,57.14
2023-02-22T15:49:15.838Z,57.89
2023-02-22T15:51:46.456Z,57.23
2023-02-22T15:54:26.528Z,56.98
2023-02-22T15:56:56.810Z,57.83
2023-02-22T15:59:30.401Z,57.30
2023-02-22T16:01:58.948Z,57.34
2023-02-22T16:04:30.171Z,57.93
2023-02-22T16:07:08.124Z,57.61
2023-02-22T16:09:34.842Z,57.92
2023-02-22T16:12:10.928Z,58.74
2023-02-22T16:14:40.413Z,59.05
2023-02-22T16:17:30.863Z,59.29
2023-02-22T16:20:00.171Z,59.79
2023-02-22T16:22:34.932Z,60.35
2023-02-22T16:25:18.245Z,61.69
2023-02-22T16:27:57.480Z,62.79
2023-02-22T16:30:28.420Z,62.16
2023-02-22T16:32:57.083Z,62.98
2023-02-22T16:35:30.844Z,64.09
2023-02-22T16:38:00.766Z,63.80
2023-02-22T16:40:34.557Z,64.49
2023-02-22T16:43:04.620Z,64.83
2023-02-22T16:45:31.330Z,65.67
2023-02-22T16:47:59.258Z,65.88
2023-02-22T16:50:25.997Z,66.46
2023-02-22T16:52:55.737Z,66.59
2023-02-22T16:55:22.716Z,66.57
2023-02-22T16:57:50.173Z,67.48
2023-02-22T17:00:31.079Z,67.49
2023-02-22T17:03:03.955Z,67.02
2023-02-22T17:05:31.513Z,67.52
2023-02-22T17:07:58.104Z,67.78
2023-02-22T17:10:26.167Z,67.81
2023-02-22T17:12:56.225Z,67.56
2023-02-22T17:15:25.596Z,68.43
2023-02-22T17:17:53.111Z,67.93
2023-02-22T17:20:31.665Z,68.91
2023-02-22T17:23:08.501Z,68.66
2023-02-22T17:25:42.210Z,68.79
2023-02-22T17:28:09.637Z,70.16
2023-02-22T17:30:36.791Z,68.80
2023-02-22T17:33:06.768Z,69.18
2023-02-22T17:35:37.310Z,70.38
2023-02-22T17:38:06.350Z,70.64
2023-02-22T17:40:35.959Z,71.19
2023-02-22T17:43:03.004Z,71.91
2023-02-22T17:45:30.315Z,72.33
2023-02-22T17:47:59.187Z,71.46
2023-02-22T17:50:26.684Z,72.72
2023-02-22T17:52:54.774Z,73.03
2023-02-22T17:55:22.003Z,72.72
2023-02-22T17:57:56.840Z,73.53
2023-02-22T18:00:24.409Z,73.46
2023-02-22T18:02:51.782Z,72.78
2023-02-22T18:05:19.143Z,72.55
2023-02-22T18:07:46.437Z,73.21
2023-02-22T18:10:13.503Z,73.86
2023-02-22T18:12:41.072Z,73.98
2023-02-22T18:15:10.899Z,73.76
2023-02-22T18:17:38.035Z,74.02
2023-02-22T18:20:11.678Z,73.72
2023-02-22T18:22:43.423Z,74.81
2023-02-22T18:25:15.788Z,75.09
2023-02-22T18:27:43.341Z,75.82
2023-02-22T18:30:12.065Z,75.76
2023-02-22T18:32:39.712Z,75.55
2023-02-22T18:35:07.152Z,76.03
2023-02-22T18:37:34.054Z,75.85
2023-02-22T18:40:00.803Z,76.26
2023-02-22T18:42:28.263Z,75.79
2023-02-22T18:45:00.668Z,75.09
2023-02-22T18:47:27.535Z,75.48
2023-02-22T18:49:54.242Z,75.47
2023-02-22T18:52:21.109Z,75.97
2023-02-22T18:54:49.060Z,76.21
2023-02-22T18:57:16.973Z,76.49
2023-02-22T18:59:43.916Z,76.88
2023-02-22T19:02:15.361Z,76.02
2023-02-22T19:04:44.101Z,75.80
2023-02-22T19:07:10.723Z,74.49
2023-02-22T19:09:37.440Z,73.98
2023-02-22T19:12:04.233Z,73.46
2023-02-22T19:14:30.844Z,72.47
2023-02-22T19:17:01.457Z,72.58
2023-02-22T19:19:28.528Z,72.56
2023-02-22T19:21:56.336Z,72.27
2023-02-22T19:24:23.120Z,71.74
2023-02-22T19:26:57.348Z,70.78
2023-02-22T19:29:24.056Z,70.76
2023-02-22T19:31:51.938Z,70.29
2023-02-22T19:34:21.833Z,70.21
2023-02-22T19:36:48.953Z,69.68
2023-02-22T19:39:17.639Z,69.84
2023-02-22T19:41:44.518Z,69.69
2023-02-22T19:44:12.261Z,68.80
2023-02-22T19:46:39.873Z,68.87
2023-02-22T19:49:07.281Z,69.28
2023-02-22T19:51:34.427Z,69.70
2023-02-22T19:54:03.835Z,69.44
2023-02-22T19:56:31.557Z,68.97
2023-02-22T19:59:02.457Z,68.43
2023-02-22T20:01:33.202Z,67.56
2023-02-22T20:04:03.740Z,66.66
2023-02-22T20:06:41.970Z,66.93
2023-02-22T20:09:12.924Z,66.81
2023-02-22T20:11:39.961Z,66.26
2023-02-22T20:14:06.651Z,65.96
2023-02-22T20:16:34.249Z,64.83
2023-02-22T20:19:01.509Z,65.07
2023-02-22T20:21:33.020Z,64.98
2023-02-22T20:24:01.662Z,63.97
2023-02-22T20:26:30.882Z,64.82
2023-02-22T20:28:58.751Z,64.77
2023-02-22T20:31:25.769Z,64.85
2023-02-22T20:33:55.473Z,64.69
2023-02-22T20:36:22.330Z,64.36
2023-02-22T20:38:52.900Z,63.84
2023-02-22T20:41:26.189Z,64.08
2023-02-22T20:43:55.222Z,64.22
2023-02-22T20:46:23.671Z,64.31
2023-02-22T20:48:55.395Z,64.43
2023-02-22T20:51:22.221Z,63.99
2023-02-22T20:53:48.997Z,64.09
2023-02-22T20:56:21.842Z,63.52
2023-02-22T20:58:48.716Z,63.15
2023-02-22T21:01:17.264Z,63.35
2023-02-22T21:03:44.150Z,63.76
2023-02-22T21:06:15.283Z,63.39
2023-02-22T21:08:49.213Z,63.51
2023-02-22T21:11:17.920Z,62.88
2023-02-22T21:13:44.801Z,62.63
2023-02-22T21:16:18.662Z,63.42
2023-02-22T21:18:45.438Z,63.41
2023-02-22T21:21:12.636Z,63.29
2023-02-22T21:23:42.276Z,63.22
2023-02-22T21:26:16.629Z,63.16
2023-02-22T21:28:51.414Z,63.58
2023-02-22T21:31:20.496Z,63.47
2023-02-22T21:33:50.544Z,63.25
2023-02-22T21:36:17.560Z,63.40
2023-02-22T21:38:46.782Z,63.45
2023-02-22T21:41:15.988Z,63.06
2023-02-22T21:43:43.974Z,63.69
2023-02-22T21:46:11.047Z,63.89
2023-02-22T21:48:48.322Z,64.07
2023-02-22T21:51:25.553Z,64.16
2023-02-22T21:53:54.929Z,64.03
2023-02-22T21:56:24.401Z,64.16
2023-02-22T21:59:02.929Z,63.88
2023-02-22T22:01:33.321Z,64.14
2023-02-22T22:04:01.730Z,63.89
2023-02-22T22:06:30.633Z,63.83
2023-02-22T22:08:59.817Z,63.58
2023-02-22T22:11:26.543Z,63.65
2023-02-22T22:13:57.636Z,63.88
2023-02-22T22:16:27.109Z,63.70
2023-02-22T22:18:55.030Z,63.52
2023-02-22T22:21:24.216Z,63.79
2023-02-22T22:23:54.380Z,63.59
2023-02-22T22:26:22.061Z,63.58
2023-02-22T22:28:51.947Z,63.49
2023-02-22T22:31:20.895Z,64.21
2023-02-22T22:33:47.759Z,64.45
2023-02-22T22:36:16.941Z,63.70
2023-02-22T22:38:47.065Z,64.15
2023-02-22T22:41:15.341Z,63.99
2023-02-22T22:43:46.626Z,64.16
2023-02-22T22:46:15.172Z,63.94
2023-02-22T22:48:42.373Z,63.93
2023-02-22T22:51:11.819Z,63.92
2023-02-22T22:53:40.703Z,64.10
2023-02-22T22:56:19.514Z,63.96
2023-02-22T22:58:55.068Z,64.07
2023-02-22T23:01:27.324Z,63.70
2023-02-22T23:04:05.897Z,63.88
2023-02-22T23:06:35.719Z,64.49
2023-02-22T23:09:11.932Z,64.11
2023-02-22T23:11:45.175Z,64.02
2023-02-22T23:14:19.571Z,64.07
2023-02-22T23:16:50.918Z,64.15
2023-02-22T23:19:19.423Z,63.50
2023-02-22T23:21:49.952Z,63.63
2023-02-22T23:24:19.511Z,63.60
2023-02-22T23:26:49.797Z,64.30
2023-02-22T23:29:22.272Z,64.14
2023-02-22T23:31:50.441Z,64.13
2023-02-22T23:34:18.217Z,64.60
2023-02-22T23:36:44.834Z,64.77
2023-02-22T23:39:12.762Z,64.04
2023-02-22T23:41:39.300Z,64.27
2023-02-22T23:44:08.451Z,64.32
2023-02-22T23:46:36.501Z,64.22
2023-02-22T23:49:05.357Z,64.12
2023-02-22T23:51:39.448Z,64.22
2023-02-22T23:54:12.572Z,64.02
2023-02-22T23:56:40.448Z,64.52
2023-02-22T23:59:10.972Z,64.59
